createdAt,value
2018-02-09T00:00:50.344Z,1012.47
2018-02-09T00:01:50.316Z,1012.47
2018-02-09T00:02:50.270Z,1012.43
2018-02-09T00:03:50.274Z,1012.42
2018-02-09T00:04:50.211Z,1012.43
2018-02-09T00:05:50.195Z,1012.44
2018-02-09T00:06:50.155Z,1012.40
2018-02-09T00:07:50.125Z,1012.39
2018-02-09T00:08:50.100Z,1012.37
2018-02-09T00:09:50.097Z,1012.36
2018-02-09T00:10:50.051Z,1012.35
2018-02-09T00:11:49.994Z,1012.36
2018-02-09T00:12:49.975Z,1012.40
2018-02-09T00:13:49.932Z,1012.35
2018-02-09T00:14:49.921Z,1012.35
2018-02-09T00:15:49.873Z,1012.37
2018-02-09T00:16:49.856Z,1012.38
2018-02-09T00:17:49.816Z,1012.40
2018-02-09T00:18:49.810Z,1012.36
2018-02-09T00:19:49.760Z,1012.36
2018-02-09T00:20:49.734Z,1012.38
2018-02-09T00:21:49.700Z,1012.37
2018-02-09T00:22:49.669Z,1012.39
2018-02-09T00:23:49.648Z,1012.42
2018-02-09T00:24:49.602Z,1012.37
2018-02-09T00:25:49.577Z,1012.38
2018-02-09T00:26:49.583Z,1012.37
2018-02-09T00:27:49.514Z,1012.37
2018-02-09T00:28:49.472Z,1012.33
2018-02-09T00:29:49.442Z,1012.36
2018-02-09T00:30:49.414Z,1012.36
2018-02-09T00:31:49.386Z,1012.34
2018-02-09T00:32:49.353Z,1012.33
2018-02-09T00:33:49.334Z,1012.28
2018-02-09T00:34:49.292Z,1012.33
2018-02-09T00:35:49.273Z,1012.32
2018-02-09T00:36:49.240Z,1012.30
2018-02-09T00:37:49.254Z,1012.32
2018-02-09T00:38:49.200Z,1012.32
2018-02-09T00:39:49.137Z,1012.31
2018-02-09T00:40:49.108Z,1012.34
2018-02-09T00:41:49.072Z,1012.32
2018-02-09T00:42:49.054Z,1012.31
2018-02-09T00:43:49.012Z,1012.32
2018-02-09T00:44:48.993Z,1012.30
2018-02-09T00:45:48.954Z,1012.31
2018-02-09T00:46:48.920Z,1012.33
2018-02-09T00:47:48.906Z,1012.32
2018-02-09T00:48:48.858Z,1012.33
2018-02-09T00:49:48.840Z,1012.29
2018-02-09T00:50:48.802Z,1012.28
2018-02-09T00:51:48.770Z,1012.29
2018-02-09T00:52:48.738Z,1012.30
2018-02-09T00:53:48.746Z,1012.30
2018-02-09T00:54:48.688Z,1012.29
2018-02-09T00:55:48.651Z,1012.28
2018-02-09T00:56:48.619Z,1012.29
2018-02-09T00:57:48.594Z,1012.27
2018-02-09T00:58:48.550Z,1012.26
2018-02-09T00:59:48.538Z,1012.27
2018-02-09T01:00:48.492Z,1012.27
2018-02-09T01:01:48.461Z,1012.29
2018-02-09T01:02:48.443Z,1012.31
2018-02-09T01:03:48.524Z,1012.28
2018-02-09T01:04:48.370Z,1012.29
2018-02-09T01:05:48.337Z,1012.27
2018-02-09T01:06:48.329Z,1012.31
2018-02-09T01:07:48.277Z,1012.30
2018-02-09T01:08:48.258Z,1012.25
2018-02-09T01:09:48.216Z,1012.30
2018-02-09T01:10:48.190Z,1012.29
2018-02-09T01:11:48.190Z,1012.23
2018-02-09T01:12:48.152Z,1012.23
2018-02-09T01:13:48.141Z,1012.23
2018-02-09T01:14:48.091Z,1012.17
2018-02-09T01:15:48.064Z,1012.17
2018-02-09T01:16:48.012Z,1012.15
2018-02-09T01:17:47.969Z,1012.16
2018-02-09T01:18:47.947Z,1012.17
2018-02-09T01:19:47.918Z,1012.15
2018-02-09T01:20:47.876Z,1012.14
2018-02-09T01:21:47.848Z,1012.11
2018-02-09T01:22:47.818Z,1012.11
2018-02-09T01:23:47.783Z,1012.11
2018-02-09T01:24:47.753Z,1012.17
2018-02-09T01:25:47.747Z,1012.11
2018-02-09T01:26:47.691Z,1012.11
2018-02-09T01:27:47.678Z,1012.09
2018-02-09T01:28:47.644Z,1012.06
2018-02-09T01:29:47.599Z,1012.09
2018-02-09T01:30:47.584Z,1012.06
2018-02-09T01:31:47.552Z,1012.08
2018-02-09T01:32:47.522Z,1012.04
2018-02-09T01:33:47.493Z,1012.06
2018-02-09T01:34:47.460Z,1012.05
2018-02-09T01:35:47.435Z,1012.04
2018-02-09T01:36:47.392Z,1012.02
2018-02-09T01:37:47.357Z,1012.03
2018-02-09T01:38:47.345Z,1012.04
2018-02-09T01:39:47.299Z,1012.01
2018-02-09T01:40:47.267Z,1012.00
2018-02-09T01:41:47.254Z,1012.02
2018-02-09T01:42:47.204Z,1011.99
2018-02-09T01:43:47.198Z,1011.96
2018-02-09T01:44:47.156Z,1011.94
2018-02-09T01:45:47.170Z,1011.96
2018-02-09T01:46:47.220Z,1011.95
2018-02-09T01:47:47.437Z,1011.97
2018-02-09T01:48:47.145Z,1011.97
2018-02-09T01:49:47.140Z,1011.91
2018-02-09T01:50:47.039Z,1011.89
2018-02-09T01:51:46.968Z,1011.88
2018-02-09T01:52:47.574Z,1011.85
2018-02-09T01:53:46.994Z,1011.85
2018-02-09T01:54:46.866Z,1011.91
2018-02-09T01:55:46.807Z,1011.91
2018-02-09T01:56:46.823Z,1011.93
2018-02-09T01:57:46.813Z,1011.90
2018-02-09T01:58:46.773Z,1011.91
2018-02-09T01:59:46.783Z,1011.89
2018-02-09T02:00:46.700Z,1011.89
2018-02-09T02:01:46.682Z,1011.87
2018-02-09T02:02:46.719Z,1011.86
2018-02-09T02:03:46.652Z,1011.82
2018-02-09T02:04:46.627Z,1011.83
2018-02-09T02:05:48.575Z,1011.81
2018-02-09T02:06:46.731Z,1011.83
2018-02-09T02:07:48.030Z,1011.84
2018-02-09T02:08:47.306Z,1011.84
2018-02-09T02:09:46.506Z,1011.77
2018-02-09T02:10:46.399Z,1011.81
2018-02-09T02:11:46.856Z,1011.78
2018-02-09T02:12:46.306Z,1011.76
2018-02-09T02:13:46.357Z,1011.75
2018-02-09T02:14:46.729Z,1011.76
2018-02-09T02:15:46.274Z,1011.76
2018-02-09T02:16:46.763Z,1011.78
2018-02-09T02:17:46.165Z,1011.75
2018-02-09T02:18:46.338Z,1011.78
2018-02-09T02:19:47.903Z,1011.76
2018-02-09T02:20:46.074Z,1011.75
2018-02-09T02:21:46.201Z,1011.73
2018-02-09T02:22:46.277Z,1011.71
2018-02-09T02:23:46.321Z,1011.75
2018-02-09T02:24:46.007Z,1011.74
2018-02-09T02:25:46.060Z,1011.74
2018-02-09T02:26:45.931Z,1011.72
2018-02-09T02:27:46.057Z,1011.72
2018-02-09T02:28:45.960Z,1011.69
2018-02-09T02:29:45.832Z,1011.73
2018-02-09T02:30:45.981Z,1011.73
2018-02-09T02:31:45.811Z,1011.71
2018-02-09T02:32:45.706Z,1011.70
2018-02-09T02:33:45.680Z,1011.70
2018-02-09T02:34:45.774Z,1011.69
2018-02-09T02:35:45.756Z,1011.72
2018-02-09T02:36:45.579Z,1011.67
2018-02-09T02:37:45.549Z,1011.64
2018-02-09T02:38:45.533Z,1011.65
2018-02-09T02:39:48.468Z,1011.66
2018-02-09T02:40:45.509Z,1011.62
2018-02-09T02:41:45.417Z,1011.64
2018-02-09T02:42:45.377Z,1011.62
2018-02-09T02:43:45.381Z,1011.60
2018-02-09T02:44:45.323Z,1011.57
2018-02-09T02:45:45.336Z,1011.56
2018-02-09T02:46:45.267Z,1011.56
2018-02-09T02:47:45.240Z,1011.56
2018-02-09T02:48:45.199Z,1011.54
2018-02-09T02:49:45.169Z,1011.55
2018-02-09T02:50:45.143Z,1011.57
2018-02-09T02:51:45.105Z,1011.54
2018-02-09T02:52:45.101Z,1011.52
2018-02-09T02:53:45.078Z,1011.51
2018-02-09T02:54:45.060Z,1011.48
2018-02-09T02:55:44.988Z,1011.47
2018-02-09T02:56:44.958Z,1011.46
2018-02-09T02:57:44.951Z,1011.47
2018-02-09T02:58:44.897Z,1011.46
2018-02-09T02:59:44.870Z,1011.44
2018-02-09T03:00:44.862Z,1011.45
2018-02-09T03:01:44.806Z,1011.40
2018-02-09T03:02:44.816Z,1011.42
2018-02-09T03:03:44.747Z,1011.40
2018-02-09T03:04:44.729Z,1011.35
2018-02-09T03:05:44.683Z,1011.34
2018-02-09T03:06:44.659Z,1011.33
2018-02-09T03:07:44.631Z,1011.32
2018-02-09T03:08:44.606Z,1011.32
2018-02-09T03:09:44.576Z,1011.30
2018-02-09T03:10:44.542Z,1011.32
2018-02-09T03:11:44.504Z,1011.27
2018-02-09T03:12:44.482Z,1011.26
2018-02-09T03:13:44.454Z,1011.24
2018-02-09T03:14:44.424Z,1011.25
2018-02-09T03:15:44.376Z,1011.20
2018-02-09T03:16:44.355Z,1011.23
2018-02-09T03:17:44.326Z,1011.21
2018-02-09T03:18:44.286Z,1011.14
2018-02-09T03:19:44.259Z,1011.19
2018-02-09T03:20:44.242Z,1011.16
2018-02-09T03:21:44.214Z,1011.18
2018-02-09T03:22:44.184Z,1011.17
2018-02-09T03:23:44.134Z,1011.15
2018-02-09T03:24:44.128Z,1011.07
2018-02-09T03:25:44.075Z,1011.16
2018-02-09T03:26:44.057Z,1011.11
2018-02-09T03:27:44.041Z,1011.10
2018-02-09T03:28:43.983Z,1011.10
2018-02-09T03:29:43.968Z,1011.05
2018-02-09T03:30:43.994Z,1011.02
2018-02-09T03:31:43.924Z,1010.99
2018-02-09T03:32:43.945Z,1011.02
2018-02-09T03:33:43.841Z,1010.99
2018-02-09T03:34:43.859Z,1011.00
2018-02-09T03:35:43.806Z,1010.98
2018-02-09T03:36:43.742Z,1011.01
2018-02-09T03:37:43.712Z,1011.00
2018-02-09T03:38:43.692Z,1010.96
2018-02-09T03:39:43.667Z,1010.95
2018-02-09T03:40:43.624Z,1010.91
2018-02-09T03:41:43.589Z,1010.91
2018-02-09T03:42:43.560Z,1010.94
2018-02-09T03:43:43.559Z,1010.94
2018-02-09T03:44:43.505Z,1010.94
2018-02-09T03:45:43.471Z,1010.94
2018-02-09T03:46:43.439Z,1010.95
2018-02-09T03:47:43.406Z,1010.92
2018-02-09T03:48:43.436Z,1010.93
2018-02-09T03:49:43.382Z,1010.93
2018-02-09T03:50:43.342Z,1010.89
2018-02-09T03:51:43.311Z,1010.95
2018-02-09T03:52:43.255Z,1010.90
2018-02-09T03:53:43.247Z,1010.92
2018-02-09T03:54:43.240Z,1010.86
2018-02-09T03:55:43.175Z,1010.91
2018-02-09T03:56:43.138Z,1010.87
2018-02-09T03:57:43.107Z,1010.85
2018-02-09T03:58:43.106Z,1010.90
2018-02-09T03:59:43.055Z,1010.89
2018-02-09T04:00:43.042Z,1010.84
2018-02-09T04:01:42.988Z,1010.85
2018-02-09T04:02:42.962Z,1010.80
2018-02-09T04:03:42.931Z,1010.80
2018-02-09T04:04:42.892Z,1010.79
2018-02-09T04:05:42.891Z,1010.80
2018-02-09T04:06:42.875Z,1010.77
2018-02-09T04:07:42.812Z,1010.77
2018-02-09T04:08:42.774Z,1010.75
2018-02-09T04:09:42.772Z,1010.73
2018-02-09T04:10:42.729Z,1010.73
2018-02-09T04:11:42.689Z,1010.73
2018-02-09T04:12:42.674Z,1010.71
2018-02-09T04:13:42.621Z,1010.69
2018-02-09T04:14:42.614Z,1010.68
2018-02-09T04:15:42.579Z,1010.67
2018-02-09T04:16:42.575Z,1010.66
2018-02-09T04:17:42.505Z,1010.61
2018-02-09T04:18:42.478Z,1010.61
2018-02-09T04:19:42.450Z,1010.61
2018-02-09T04:20:42.423Z,1010.61
2018-02-09T04:21:42.383Z,1010.61
2018-02-09T04:22:42.372Z,1010.65
2018-02-09T04:23:42.333Z,1010.62
2018-02-09T04:24:42.292Z,1010.60
2018-02-09T04:25:45.190Z,1010.61
2018-02-09T04:26:42.233Z,1010.57
2018-02-09T04:27:44.184Z,1010.61
2018-02-09T04:28:42.172Z,1010.56
2018-02-09T04:29:42.145Z,1010.57
2018-02-09T04:30:42.116Z,1010.58
2018-02-09T04:31:42.086Z,1010.57
2018-02-09T04:32:42.059Z,1010.55
2018-02-09T04:33:42.028Z,1010.53
2018-02-09T04:34:41.996Z,1010.54
2018-02-09T04:35:41.965Z,1010.52
2018-02-09T04:36:41.936Z,1010.55
2018-02-09T04:37:41.936Z,1010.53
2018-02-09T04:38:41.877Z,1010.50
2018-02-09T04:39:41.844Z,1010.52
2018-02-09T04:40:41.816Z,1010.52
2018-02-09T04:41:41.785Z,1010.53
2018-02-09T04:42:41.757Z,1010.56
2018-02-09T04:43:41.725Z,1010.56
2018-02-09T04:44:41.696Z,1010.61
2018-02-09T04:45:41.666Z,1010.56
2018-02-09T04:46:41.635Z,1010.58
2018-02-09T04:47:41.607Z,1010.58
2018-02-09T04:48:41.577Z,1010.52
2018-02-09T04:49:41.546Z,1010.51
2018-02-09T04:50:41.517Z,1010.51
2018-02-09T04:51:41.488Z,1010.51
2018-02-09T04:52:41.457Z,1010.48
2018-02-09T04:53:41.427Z,1010.50
2018-02-09T04:54:41.395Z,1010.45
2018-02-09T04:55:41.365Z,1010.47
2018-02-09T04:56:41.335Z,1010.45
2018-02-09T04:57:41.308Z,1010.46
2018-02-09T04:58:41.276Z,1010.45
2018-02-09T04:59:41.246Z,1010.46
2018-02-09T05:00:41.220Z,1010.45
2018-02-09T05:01:41.186Z,1010.42
2018-02-09T05:02:41.165Z,1010.41
2018-02-09T05:03:41.126Z,1010.42
2018-02-09T05:04:41.096Z,1010.40
2018-02-09T05:05:41.066Z,1010.39
2018-02-09T05:06:41.036Z,1010.38
2018-02-09T05:07:41.006Z,1010.40
2018-02-09T05:08:40.976Z,1010.37
2018-02-09T05:09:40.945Z,1010.36
2018-02-09T05:10:40.922Z,1010.37
2018-02-09T05:11:40.886Z,1010.40
2018-02-09T05:12:40.862Z,1010.38
2018-02-09T05:13:40.829Z,1010.38
2018-02-09T05:14:40.796Z,1010.36
2018-02-09T05:15:40.763Z,1010.38
2018-02-09T05:16:40.927Z,1010.35
2018-02-09T05:17:40.706Z,1010.36
2018-02-09T05:18:40.676Z,1010.33
2018-02-09T05:19:40.642Z,1010.35
2018-02-09T05:20:40.615Z,1010.31
2018-02-09T05:21:40.589Z,1010.33
2018-02-09T05:22:40.554Z,1010.30
2018-02-09T05:23:40.525Z,1010.35
2018-02-09T05:24:40.496Z,1010.32
2018-02-09T05:25:40.463Z,1010.34
2018-02-09T05:26:40.437Z,1010.31
2018-02-09T05:27:40.402Z,1010.28
2018-02-09T05:28:40.377Z,1010.29
2018-02-09T05:29:40.342Z,1010.28
2018-02-09T05:30:40.310Z,1010.29
2018-02-09T05:31:40.284Z,1010.30
2018-02-09T05:32:40.255Z,1010.28
2018-02-09T05:33:40.226Z,1010.23
2018-02-09T05:34:40.195Z,1010.24
2018-02-09T05:35:40.167Z,1010.25
2018-02-09T05:36:40.136Z,1010.23
2018-02-09T05:37:40.105Z,1010.27
2018-02-09T05:38:40.076Z,1010.25
2018-02-09T05:39:40.045Z,1010.22
2018-02-09T05:40:40.016Z,1010.28
2018-02-09T05:41:39.985Z,1010.24
2018-02-09T05:42:39.953Z,1010.23
2018-02-09T05:43:39.926Z,1010.17
2018-02-09T05:44:39.895Z,1010.19
2018-02-09T05:45:39.862Z,1010.15
2018-02-09T05:46:39.839Z,1010.13
2018-02-09T05:47:39.801Z,1010.12
2018-02-09T05:48:39.777Z,1010.14
2018-02-09T05:49:39.745Z,1010.14
2018-02-09T05:50:39.717Z,1010.15
2018-02-09T05:51:39.685Z,1010.12
2018-02-09T05:52:39.659Z,1010.11
2018-02-09T05:53:39.621Z,1010.07
2018-02-09T05:54:39.592Z,1010.04
2018-02-09T05:55:39.571Z,1010.06
2018-02-09T05:56:39.547Z,1010.09
2018-02-09T05:57:39.508Z,1010.07
2018-02-09T05:58:39.473Z,1010.02
2018-02-09T05:59:39.452Z,1010.04
2018-02-09T06:00:39.416Z,1010.04
2018-02-09T06:01:39.385Z,1009.99
2018-02-09T06:02:39.354Z,1010.01
2018-02-09T06:03:39.333Z,1010.02
2018-02-09T06:04:39.300Z,1009.99
2018-02-09T06:05:39.266Z,1010.01
2018-02-09T06:06:39.236Z,1009.97
2018-02-09T06:07:39.207Z,1009.96
2018-02-09T06:08:39.179Z,1009.96
2018-02-09T06:09:39.148Z,1009.94
2018-02-09T06:10:39.123Z,1009.93
2018-02-09T06:11:39.095Z,1009.95
2018-02-09T06:12:39.060Z,1009.93
2018-02-09T06:13:39.078Z,1009.96
2018-02-09T06:14:38.998Z,1009.92
2018-02-09T06:15:38.972Z,1009.94
2018-02-09T06:16:38.935Z,1009.90
2018-02-09T06:17:38.917Z,1009.94
2018-02-09T06:18:38.877Z,1009.92
2018-02-09T06:19:38.857Z,1009.94
2018-02-09T06:20:38.819Z,1009.94
2018-02-09T06:21:38.792Z,1009.91
2018-02-09T06:22:38.759Z,1009.91
2018-02-09T06:23:38.729Z,1009.89
2018-02-09T06:24:38.700Z,1009.84
2018-02-09T06:25:38.678Z,1009.90
2018-02-09T06:26:38.635Z,1009.87
2018-02-09T06:27:38.611Z,1009.83
2018-02-09T06:28:38.579Z,1009.84
2018-02-09T06:29:38.554Z,1009.85
2018-02-09T06:30:38.522Z,1009.82
2018-02-09T06:31:38.493Z,1009.83
2018-02-09T06:32:38.463Z,1009.84
2018-02-09T06:33:38.431Z,1009.82
2018-02-09T06:34:38.403Z,1009.86
2018-02-09T06:35:38.373Z,1009.82
2018-02-09T06:36:38.340Z,1009.84
2018-02-09T06:37:38.305Z,1009.84
2018-02-09T06:38:38.282Z,1009.81
2018-02-09T06:39:38.252Z,1009.82
2018-02-09T06:40:38.215Z,1009.84
2018-02-09T06:41:38.190Z,1009.86
2018-02-09T06:42:38.170Z,1009.88
2018-02-09T06:43:38.130Z,1009.84
2018-02-09T06:44:38.098Z,1009.86
2018-02-09T06:45:38.071Z,1009.87
2018-02-09T06:46:38.040Z,1009.88
2018-02-09T06:47:38.018Z,1009.92
2018-02-09T06:48:37.976Z,1009.90
2018-02-09T06:49:37.959Z,1009.90
2018-02-09T06:50:37.919Z,1009.88
2018-02-09T06:51:37.900Z,1009.85
2018-02-09T06:52:37.859Z,1009.89
2018-02-09T06:53:37.842Z,1009.84
2018-02-09T06:54:37.801Z,1009.84
2018-02-09T06:55:37.777Z,1009.83
2018-02-09T06:56:37.742Z,1009.79
2018-02-09T06:57:37.710Z,1009.79
2018-02-09T06:58:37.680Z,1009.77
2018-02-09T06:59:37.650Z,1009.78
2018-02-09T07:00:37.620Z,1009.78
2018-02-09T07:01:37.593Z,1009.77
2018-02-09T07:02:37.572Z,1009.73
2018-02-09T07:03:37.533Z,1009.72
2018-02-09T07:04:37.510Z,1009.73
2018-02-09T07:05:40.199Z,1009.72
2018-02-09T07:06:37.444Z,1009.71
2018-02-09T07:07:37.415Z,1009.65
2018-02-09T07:08:37.378Z,1009.68
2018-02-09T07:09:37.351Z,1009.69
2018-02-09T07:10:37.323Z,1009.70
2018-02-09T07:11:37.299Z,1009.67
2018-02-09T07:12:37.262Z,1009.67
2018-02-09T07:13:37.246Z,1009.66
2018-02-09T07:14:37.202Z,1009.65
2018-02-09T07:15:37.169Z,1009.64
2018-02-09T07:16:37.140Z,1009.65
2018-02-09T07:17:37.113Z,1009.66
2018-02-09T07:18:37.077Z,1009.61
2018-02-09T07:19:37.052Z,1009.64
2018-02-09T07:20:37.016Z,1009.63
2018-02-09T07:21:36.993Z,1009.65
2018-02-09T07:22:36.962Z,1009.58
2018-02-09T07:23:36.932Z,1009.62
2018-02-09T07:24:36.896Z,1009.56
2018-02-09T07:25:36.867Z,1009.58
2018-02-09T07:26:36.843Z,1009.56
2018-02-09T07:27:36.813Z,1009.56
2018-02-09T07:28:36.780Z,1009.51
2018-02-09T07:29:36.751Z,1009.49
2018-02-09T07:30:36.720Z,1009.52
2018-02-09T07:31:36.685Z,1009.51
2018-02-09T07:32:36.680Z,1009.47
2018-02-09T07:33:36.630Z,1009.46
2018-02-09T07:34:36.606Z,1009.40
2018-02-09T07:35:36.569Z,1009.46
2018-02-09T07:36:36.536Z,1009.46
2018-02-09T07:37:36.512Z,1009.46
2018-02-09T07:38:36.479Z,1009.44
2018-02-09T07:39:36.446Z,1009.46
2018-02-09T07:40:36.417Z,1009.46
2018-02-09T07:41:36.384Z,1009.44
2018-02-09T07:42:36.354Z,1009.47
2018-02-09T07:43:36.329Z,1009.47
2018-02-09T07:44:36.300Z,1009.48
2018-02-09T07:45:36.265Z,1009.48
2018-02-09T07:46:36.237Z,1009.43
2018-02-09T07:47:36.204Z,1009.46
2018-02-09T07:48:36.174Z,1009.48
2018-02-09T07:49:36.143Z,1009.44
2018-02-09T07:50:36.112Z,1009.42
2018-02-09T07:51:36.082Z,1009.44
2018-02-09T07:52:36.053Z,1009.39
2018-02-09T07:53:36.021Z,1009.36
2018-02-09T07:54:35.993Z,1009.38
2018-02-09T07:55:35.962Z,1009.42
2018-02-09T07:56:35.932Z,1009.40
2018-02-09T07:57:35.900Z,1009.37
2018-02-09T07:58:35.868Z,1009.39
2018-02-09T07:59:35.839Z,1009.36
2018-02-09T08:00:35.810Z,1009.37
2018-02-09T08:01:35.779Z,1009.34
2018-02-09T08:02:35.749Z,1009.34
2018-02-09T08:03:35.723Z,1009.34
2018-02-09T08:04:35.688Z,1009.35
2018-02-09T08:05:35.658Z,1009.36
2018-02-09T08:06:35.624Z,1009.36
2018-02-09T08:07:35.599Z,1009.38
2018-02-09T08:08:35.566Z,1009.34
2018-02-09T08:09:35.537Z,1009.34
2018-02-09T08:10:35.506Z,1009.35
2018-02-09T08:11:35.476Z,1009.31
2018-02-09T08:12:35.464Z,1009.34
2018-02-09T08:13:35.417Z,1009.31
2018-02-09T08:14:35.388Z,1009.28
2018-02-09T08:15:35.356Z,1009.24
2018-02-09T08:16:35.330Z,1009.21
2018-02-09T08:17:35.290Z,1009.21
2018-02-09T08:18:35.265Z,1009.17
2018-02-09T08:19:35.235Z,1009.20
2018-02-09T08:20:35.207Z,1009.17
2018-02-09T08:21:35.174Z,1009.22
2018-02-09T08:22:35.144Z,1009.20
2018-02-09T08:23:35.114Z,1009.18
2018-02-09T08:24:35.091Z,1009.19
2018-02-09T08:25:35.055Z,1009.18
2018-02-09T08:26:35.021Z,1009.19
2018-02-09T08:27:34.995Z,1009.20
2018-02-09T08:28:34.960Z,1009.24
2018-02-09T08:29:34.934Z,1009.23
2018-02-09T08:30:34.901Z,1009.21
2018-02-09T08:31:34.873Z,1009.16
2018-02-09T08:32:34.841Z,1009.21
2018-02-09T08:33:34.813Z,1009.20
2018-02-09T08:34:34.784Z,1009.18
2018-02-09T08:35:34.755Z,1009.21
2018-02-09T08:36:34.726Z,1009.18
2018-02-09T08:37:34.694Z,1009.21
2018-02-09T08:38:34.665Z,1009.20
2018-02-09T08:39:34.635Z,1009.14
2018-02-09T08:40:34.606Z,1009.13
2018-02-09T08:41:34.576Z,1009.13
2018-02-09T08:42:34.545Z,1009.09
2018-02-09T08:43:34.540Z,1009.10
2018-02-09T08:44:34.487Z,1009.09
2018-02-09T08:45:34.457Z,1009.10
2018-02-09T08:46:34.427Z,1009.08
2018-02-09T08:47:34.398Z,1009.09
2018-02-09T08:48:34.369Z,1009.10
2018-02-09T08:49:34.337Z,1009.08
2018-02-09T08:50:34.309Z,1009.07
2018-02-09T08:51:34.277Z,1009.11
2018-02-09T08:52:34.251Z,1009.08
2018-02-09T08:53:34.223Z,1009.08
2018-02-09T08:54:34.190Z,1009.08
2018-02-09T08:55:34.209Z,1009.03
2018-02-09T08:56:34.130Z,1009.02
2018-02-09T08:57:34.101Z,1009.05
2018-02-09T08:58:34.069Z,1009.06
2018-02-09T08:59:34.043Z,1009.09
2018-02-09T09:00:34.015Z,1009.08
2018-02-09T09:01:33.983Z,1009.09
2018-02-09T09:02:33.953Z,1009.10
2018-02-09T09:03:33.925Z,1009.09
2018-02-09T09:04:33.895Z,1009.07
2018-02-09T09:05:33.865Z,1009.03
2018-02-09T09:06:33.831Z,1009.08
2018-02-09T09:07:33.810Z,1009.07
2018-02-09T09:08:33.777Z,1009.07
2018-02-09T09:09:33.746Z,1009.07
2018-02-09T09:10:33.716Z,1009.02
2018-02-09T09:11:33.689Z,1008.95
2018-02-09T09:12:33.659Z,1008.97
2018-02-09T09:13:33.629Z,1008.98
2018-02-09T09:14:33.599Z,1008.92
2018-02-09T09:15:33.572Z,1008.89
2018-02-09T09:16:33.541Z,1008.86
2018-02-09T09:17:33.511Z,1008.84
2018-02-09T09:18:33.481Z,1008.84
2018-02-09T09:19:33.454Z,1008.86
2018-02-09T09:20:33.425Z,1008.81
2018-02-09T09:21:33.399Z,1008.86
2018-02-09T09:22:33.366Z,1008.84
2018-02-09T09:23:33.337Z,1008.83
2018-02-09T09:24:33.308Z,1008.89
2018-02-09T09:25:33.278Z,1008.85
2018-02-09T09:26:33.249Z,1008.83
2018-02-09T09:27:33.220Z,1008.86
2018-02-09T09:28:33.191Z,1008.89
2018-02-09T09:29:33.160Z,1008.84
2018-02-09T09:30:33.132Z,1008.85
2018-02-09T09:31:33.103Z,1008.87
2018-02-09T09:32:33.080Z,1008.83
2018-02-09T09:33:33.045Z,1008.87
2018-02-09T09:34:33.058Z,1008.83
2018-02-09T09:35:32.984Z,1008.85
2018-02-09T09:36:32.961Z,1008.82
2018-02-09T09:37:32.930Z,1008.81
2018-02-09T09:38:32.901Z,1008.78
2018-02-09T09:39:32.872Z,1008.80
2018-02-09T09:40:32.843Z,1008.84
2018-02-09T09:41:32.814Z,1008.83
2018-02-09T09:42:32.790Z,1008.81
2018-02-09T09:43:32.756Z,1008.82
2018-02-09T09:44:32.729Z,1008.84
2018-02-09T09:45:32.700Z,1008.80
2018-02-09T09:46:32.672Z,1008.83
2018-02-09T09:47:32.642Z,1008.85
2018-02-09T09:48:32.613Z,1008.86
2018-02-09T09:49:32.584Z,1008.94
2018-02-09T09:50:32.558Z,1008.98
2018-02-09T09:51:32.528Z,1009.06
2018-02-09T09:52:32.500Z,1009.03
2018-02-09T09:53:32.470Z,1009.07
2018-02-09T09:54:32.444Z,1009.07
2018-02-09T09:55:32.414Z,1009.01
2018-02-09T09:56:32.387Z,1008.98
2018-02-09T09:57:32.357Z,1008.99
2018-02-09T09:58:32.330Z,1008.99
2018-02-09T09:59:32.302Z,1008.96
2018-02-09T10:00:32.275Z,1008.98
2018-02-09T10:01:32.247Z,1008.96
2018-02-09T10:02:32.220Z,1008.95
2018-02-09T10:03:32.193Z,1008.97
2018-02-09T10:04:32.166Z,1009.01
2018-02-09T10:05:32.141Z,1008.94
2018-02-09T10:06:32.109Z,1008.95
2018-02-09T10:07:32.085Z,1008.91
2018-02-09T10:08:32.059Z,1008.93
2018-02-09T10:09:32.030Z,1008.90
2018-02-09T10:10:32.004Z,1008.84
2018-02-09T10:11:31.977Z,1008.86
2018-02-09T10:12:31.952Z,1008.92
2018-02-09T10:13:31.942Z,1008.89
2018-02-09T10:14:31.899Z,1008.94
2018-02-09T10:15:31.876Z,1008.88
2018-02-09T10:16:31.846Z,1008.87
2018-02-09T10:17:31.818Z,1008.89
2018-02-09T10:18:31.795Z,1008.85
2018-02-09T10:19:31.770Z,1008.87
2018-02-09T10:20:31.744Z,1008.89
2018-02-09T10:21:31.716Z,1008.85
2018-02-09T10:22:31.691Z,1008.83
2018-02-09T10:23:31.665Z,1008.88
2018-02-09T10:24:31.639Z,1008.91
2018-02-09T10:25:31.612Z,1008.92
2018-02-09T10:26:31.588Z,1008.91
2018-02-09T10:27:31.562Z,1008.89
2018-02-09T10:28:31.536Z,1008.88
2018-02-09T10:29:31.510Z,1008.85
2018-02-09T10:30:31.484Z,1008.92
2018-02-09T10:31:31.462Z,1009.00
2018-02-09T10:32:31.433Z,1008.90
2018-02-09T10:33:31.407Z,1008.92
2018-02-09T10:34:31.382Z,1008.95
2018-02-09T10:35:31.357Z,1008.97
2018-02-09T10:36:31.332Z,1009.02
2018-02-09T10:37:31.308Z,1009.02
2018-02-09T10:38:31.282Z,1009.09
2018-02-09T10:39:31.258Z,1009.10
2018-02-09T10:40:31.232Z,1009.13
2018-02-09T10:41:31.208Z,1009.01
2018-02-09T10:42:31.183Z,1009.04
2018-02-09T10:43:31.166Z,1009.02
2018-02-09T10:44:31.136Z,1009.00
2018-02-09T10:45:31.112Z,1008.98
2018-02-09T10:46:31.087Z,1009.04
2018-02-09T10:47:31.064Z,1009.06
2018-02-09T10:48:31.042Z,1009.03
2018-02-09T10:49:31.020Z,1008.94
2018-02-09T10:50:30.994Z,1008.93
2018-02-09T10:51:30.973Z,1008.91
2018-02-09T10:52:30.948Z,1008.89
2018-02-09T10:53:30.926Z,1008.89
2018-02-09T10:54:30.902Z,1008.92
2018-02-09T10:55:30.882Z,1008.90
2018-02-09T10:56:30.858Z,1008.94
2018-02-09T10:57:30.837Z,1008.92
2018-02-09T10:58:30.815Z,1008.88
2018-02-09T10:59:30.791Z,1008.91
2018-02-09T11:00:30.771Z,1008.93
2018-02-09T11:01:30.749Z,1009.00
2018-02-09T11:02:30.731Z,1008.90
2018-02-09T11:03:30.706Z,1008.88
2018-02-09T11:04:30.687Z,1008.90
2018-02-09T11:05:30.666Z,1008.92
2018-02-09T11:06:30.641Z,1008.85
2018-02-09T11:07:30.620Z,1008.79
2018-02-09T11:08:30.601Z,1008.78
2018-02-09T11:09:30.578Z,1008.76
2018-02-09T11:10:30.557Z,1008.69
2018-02-09T11:11:30.536Z,1008.70
2018-02-09T11:12:30.514Z,1008.69
2018-02-09T11:13:30.497Z,1008.65
2018-02-09T11:14:30.472Z,1008.70
2018-02-09T11:15:30.453Z,1008.67
2018-02-09T11:16:30.432Z,1008.64
2018-02-09T11:17:30.411Z,1008.67
2018-02-09T11:18:30.391Z,1008.75
2018-02-09T11:19:30.370Z,1008.74
2018-02-09T11:20:30.350Z,1008.74
2018-02-09T11:21:30.329Z,1008.80
2018-02-09T11:22:30.309Z,1008.80
2018-02-09T11:23:30.343Z,1008.71
2018-02-09T11:24:30.270Z,1008.71
2018-02-09T11:25:30.250Z,1008.70
2018-02-09T11:26:30.228Z,1008.69
2018-02-09T11:27:30.212Z,1008.70
2018-02-09T11:28:30.189Z,1008.68
2018-02-09T11:29:30.175Z,1008.65
2018-02-09T11:30:30.161Z,1008.66
2018-02-09T11:31:30.133Z,1008.65
2018-02-09T11:32:30.111Z,1008.62
2018-02-09T11:33:30.091Z,1008.63
2018-02-09T11:34:30.070Z,1008.60
2018-02-09T11:35:30.052Z,1008.54
2018-02-09T11:36:30.033Z,1008.57
2018-02-09T11:37:30.014Z,1008.52
2018-02-09T11:38:29.999Z,1008.49
2018-02-09T11:39:29.979Z,1008.52
2018-02-09T11:40:29.960Z,1008.48
2018-02-09T11:41:29.938Z,1008.47
2018-02-09T11:42:29.921Z,1008.45
2018-02-09T11:43:29.903Z,1008.40
2018-02-09T11:44:29.883Z,1008.41
2018-02-09T11:45:29.864Z,1008.35
2018-02-09T11:46:29.846Z,1008.40
2018-02-09T11:47:29.827Z,1008.31
2018-02-09T11:48:29.808Z,1008.29
2018-02-09T11:49:29.793Z,1008.31
2018-02-09T11:50:29.770Z,1008.32
2018-02-09T11:51:29.762Z,1008.27
2018-02-09T11:52:29.734Z,1008.26
2018-02-09T11:53:29.713Z,1008.28
2018-02-09T11:54:29.694Z,1008.26
2018-02-09T11:55:29.675Z,1008.27
2018-02-09T11:56:29.659Z,1008.25
2018-02-09T11:57:29.638Z,1008.27
2018-02-09T11:58:29.620Z,1008.21
2018-02-09T11:59:29.601Z,1008.18
2018-02-09T12:00:29.587Z,1008.21
2018-02-09T12:01:29.565Z,1008.24
2018-02-09T12:02:29.546Z,1008.27
2018-02-09T12:03:29.528Z,1008.27
2018-02-09T12:04:29.510Z,1008.25
2018-02-09T12:05:29.492Z,1008.19